createdAt,value
2022-09-23T00:00:20.035Z,99.90
2022-09-23T00:02:50.416Z,99.90
2022-09-23T00:05:17.889Z,99.90
2022-09-23T00:07:45.462Z,99.90
2022-09-23T00:10:12.987Z,99.90
2022-09-23T00:12:41.290Z,99.90
2022-09-23T00:15:09.170Z,99.90
2022-09-23T00:17:36.704Z,99.90
2022-09-23T00:20:04.230Z,99.90
2022-09-23T00:22:31.804Z,99.90
2022-09-23T00:25:00.099Z,99.90
2022-09-23T00:27:27.620Z,99.90
2022-09-23T00:29:55.196Z,99.90
2022-09-23T00:32:22.711Z,99.90
2022-09-23T00:34:50.245Z,99.90
2022-09-23T00:37:17.809Z,99.90
2022-09-23T00:39:45.337Z,99.90
2022-09-23T00:42:16.622Z,99.90
2022-09-23T00:44:49.837Z,99.90
2022-09-23T00:47:17.362Z,99.90
2022-09-23T00:49:44.897Z,99.90
2022-09-23T00:52:13.218Z,99.90
2022-09-23T00:54:40.753Z,99.90
2022-09-23T00:57:08.288Z,99.90
2022-09-23T00:59:36.601Z,99.90
2022-09-23T01:02:04.191Z,99.90
2022-09-23T01:04:31.679Z,99.90
2022-09-23T01:06:59.992Z,99.90
2022-09-23T01:09:27.519Z,99.90
2022-09-23T01:11:58.410Z,99.90
2022-09-23T01:14:37.904Z,99.90
2022-09-23T01:17:08.871Z,99.90
2022-09-23T01:19:54.787Z,99.90
2022-09-23T01:22:43.953Z,99.90
2022-09-23T01:25:14.727Z,99.90
2022-09-23T01:28:10.195Z,99.90
2022-09-23T01:30:43.768Z,99.90
2022-09-23T01:33:12.088Z,99.90
2022-09-23T01:36:08.029Z,99.90
2022-09-23T01:38:51.101Z,99.90
2022-09-23T01:41:24.485Z,99.90
2022-09-23T01:43:54.905Z,99.90
2022-09-23T01:46:25.176Z,99.90
2022-09-23T01:48:52.760Z,99.90
2022-09-23T01:52:25.901Z,99.90
2022-09-23T01:54:59.147Z,99.90
2022-09-23T01:57:39.541Z,99.90
2022-09-23T02:00:13.356Z,99.90
2022-09-23T02:02:43.614Z,99.90
2022-09-23T02:05:11.919Z,99.90
2022-09-23T02:07:59.176Z,99.90
2022-09-23T02:10:29.448Z,99.90
2022-09-23T02:12:56.982Z,99.90
2022-09-23T02:15:24.535Z,99.90
2022-09-23T02:17:55.103Z,99.90
2022-09-23T02:20:23.397Z,99.90
2022-09-23T02:23:09.008Z,99.90
2022-09-23T02:25:54.649Z,99.90
2022-09-23T02:28:37.988Z,99.90
2022-09-23T02:31:11.420Z,99.90
2022-09-23T02:33:41.457Z,99.90
2022-09-23T02:36:12.054Z,99.90
2022-09-23T02:38:39.578Z,99.90
2022-09-23T02:41:19.638Z,99.90
2022-09-23T02:44:06.726Z,99.90
2022-09-23T02:46:34.989Z,99.90
2022-09-23T02:49:11.731Z,99.90
2022-09-23T02:51:41.974Z,99.90
2022-09-23T02:54:09.557Z,99.90
2022-09-23T02:56:37.131Z,99.90
2022-09-23T02:59:05.443Z,99.90
2022-09-23T03:01:45.039Z,99.90
2022-09-23T03:04:24.331Z,99.90
2022-09-23T03:07:13.182Z,99.90
2022-09-23T03:09:40.727Z,99.90
2022-09-23T03:12:22.995Z,99.90
2022-09-23T03:14:50.540Z,99.90
2022-09-23T03:17:18.081Z,99.90
2022-09-23T03:19:45.615Z,99.90
2022-09-23T03:22:19.028Z,99.90
2022-09-23T03:24:48.059Z,99.90
2022-09-23T03:27:17.588Z,99.90
2022-09-23T03:29:45.929Z,99.90
2022-09-23T03:32:15.993Z,99.90
2022-09-23T03:34:43.532Z,99.90
2022-09-23T03:37:12.609Z,99.90
2022-09-23T03:39:42.567Z,99.90
2022-09-23T03:42:13.163Z,99.90
2022-09-23T03:44:40.718Z,99.90
2022-09-23T03:47:08.262Z,99.90
2022-09-23T03:49:35.788Z,99.90
2022-09-23T03:52:04.269Z,99.90
2022-09-23T03:54:31.801Z,99.90
2022-09-23T03:57:00.106Z,99.90
2022-09-23T03:59:27.639Z,99.90
2022-09-23T04:01:56.137Z,99.90
2022-09-23T04:04:23.545Z,99.90
2022-09-23T04:06:51.386Z,99.90
2022-09-23T04:09:18.921Z,99.90
2022-09-23T04:11:46.445Z,99.90
2022-09-23T04:14:14.847Z,99.90
2022-09-23T04:16:42.446Z,99.90
2022-09-23T04:19:11.703Z,99.90
2022-09-23T04:21:37.451Z,99.90
2022-09-23T04:24:04.995Z,99.90
2022-09-23T04:26:32.522Z,99.90
2022-09-23T04:29:00.827Z,99.90
2022-09-23T04:31:28.373Z,99.90
2022-09-23T04:33:56.651Z,99.90
2022-09-23T04:36:24.226Z,99.90
2022-09-23T04:38:51.769Z,99.90
2022-09-23T04:41:19.304Z,99.90
2022-09-23T04:43:47.617Z,99.90
2022-09-23T04:46:15.227Z,99.90
2022-09-23T04:48:43.466Z,99.90
2022-09-23T04:51:11.042Z,99.90
2022-09-23T04:53:38.587Z,99.90
2022-09-23T04:56:08.928Z,99.90
2022-09-23T04:58:36.759Z,99.90
2022-09-23T05:01:16.133Z,99.90
2022-09-23T05:03:44.393Z,99.90
2022-09-23T05:06:11.925Z,99.90
2022-09-23T05:08:39.445Z,99.90
2022-09-23T05:11:07.018Z,99.90
2022-09-23T05:13:35.321Z,99.90
2022-09-23T05:16:02.906Z,99.90
2022-09-23T05:18:33.400Z,99.90
2022-09-23T05:21:00.926Z,99.90
2022-09-23T05:23:28.449Z,99.90
2022-09-23T05:25:58.870Z,99.90
2022-09-23T05:28:26.404Z,99.90
2022-09-23T05:30:53.931Z,99.90
2022-09-23T05:33:21.495Z,99.90
2022-09-23T05:35:49.800Z,99.90
2022-09-23T05:38:17.334Z,99.90
2022-09-23T05:40:45.783Z,99.90
2022-09-23T05:43:13.174Z,99.90
2022-09-23T05:45:41.465Z,99.90
2022-09-23T05:48:09.346Z,99.90
2022-09-23T05:50:36.868Z,99.90
2022-09-23T05:53:05.161Z,99.90
2022-09-23T05:55:33.492Z,99.90
2022-09-23T05:58:01.035Z,99.90
2022-09-23T06:00:28.597Z,99.90
2022-09-23T06:02:56.247Z,99.90
2022-09-23T06:05:23.682Z,99.90
2022-09-23T06:07:51.218Z,99.90
2022-09-23T06:10:19.543Z,99.90
2022-09-23T06:12:47.092Z,99.90
2022-09-23T06:15:14.617Z,99.90
2022-09-23T06:17:42.950Z,99.90
2022-09-23T06:20:10.613Z,99.90
2022-09-23T06:22:39.935Z,99.90
2022-09-23T06:25:05.804Z,99.90
2022-09-23T06:27:33.516Z,99.90
2022-09-23T06:30:01.038Z,99.90
2022-09-23T06:32:28.606Z,99.90
2022-09-23T06:34:56.134Z,99.90
2022-09-23T06:37:23.699Z,99.90
2022-09-23T06:39:51.581Z,99.90
2022-09-23T06:42:19.114Z,99.90
2022-09-23T06:44:46.641Z,99.90
2022-09-23T06:47:14.206Z,99.90
2022-09-23T06:49:42.501Z,99.90
2022-09-23T06:52:10.038Z,99.90
2022-09-23T06:54:38.385Z,99.90
2022-09-23T06:57:05.943Z,99.90
2022-09-23T06:59:33.477Z,99.90
2022-09-23T07:02:01.191Z,99.90
2022-09-23T07:04:29.406Z,99.90
2022-09-23T07:06:56.135Z,99.90
2022-09-23T07:09:23.713Z,99.90
2022-09-23T07:11:51.269Z,99.90
2022-09-23T07:14:18.824Z,99.90
2022-09-23T07:16:46.387Z,99.90
2022-09-23T07:19:13.918Z,99.90
2022-09-23T07:21:42.221Z,99.90
2022-09-23T07:24:10.822Z,99.90
2022-09-23T07:26:41.162Z,99.90
2022-09-23T07:29:05.881Z,99.90
2022-09-23T07:31:39.314Z,99.90
2022-09-23T07:34:03.714Z,99.90
2022-09-23T07:36:33.706Z,99.90
2022-09-23T07:39:01.282Z,99.90
2022-09-23T07:41:28.803Z,99.90
2022-09-23T07:43:57.088Z,99.90
2022-09-23T07:46:25.492Z,99.90
2022-09-23T07:48:52.958Z,99.90
2022-09-23T07:51:23.117Z,99.90
2022-09-23T07:53:50.688Z,99.90
2022-09-23T07:56:18.208Z,99.90
2022-09-23T07:58:45.736Z,99.90
2022-09-23T08:01:13.327Z,99.90
2022-09-23T08:03:40.846Z,99.90
2022-09-23T08:06:08.381Z,99.90
2022-09-23T08:08:35.966Z,99.90
2022-09-23T08:11:04.281Z,99.90
2022-09-23T08:13:31.817Z,99.90
2022-09-23T08:15:59.428Z,99.90
2022-09-23T08:18:26.914Z,99.90
2022-09-23T08:20:55.217Z,99.90
2022-09-23T08:23:22.794Z,99.90
2022-09-23T08:25:50.322Z,99.90
2022-09-23T08:28:17.854Z,99.90
2022-09-23T08:30:46.219Z,99.90
2022-09-23T08:33:13.739Z,99.90
2022-09-23T08:35:41.274Z,99.90
2022-09-23T08:38:08.851Z,99.90
2022-09-23T08:40:36.428Z,99.90
2022-09-23T08:43:04.691Z,99.90
2022-09-23T08:45:32.267Z,99.90
2022-09-23T08:47:59.794Z,99.90
2022-09-23T08:50:27.338Z,99.90
2022-09-23T08:52:57.426Z,99.90
2022-09-23T08:55:34.241Z,99.90
2022-09-23T08:58:24.457Z,99.90
2022-09-23T09:00:35.808Z,99.90
2022-09-23T09:03:03.340Z,99.90
2022-09-23T09:05:31.684Z,99.90
2022-09-23T09:07:59.216Z,99.90
2022-09-23T09:10:26.756Z,99.90
2022-09-23T09:13:06.296Z,99.90
2022-09-23T09:15:34.621Z,99.90
2022-09-23T09:18:02.146Z,99.90
2022-09-23T09:20:39.000Z,99.90
2022-09-23T09:23:13.089Z,99.90
2022-09-23T09:25:46.607Z,99.90
2022-09-23T09:28:17.585Z,99.90
2022-09-23T09:30:48.308Z,99.90
2022-09-23T09:33:15.670Z,99.90
2022-09-23T09:36:17.511Z,99.90
2022-09-23T09:38:46.206Z,99.90
2022-09-23T09:41:13.748Z,99.90
2022-09-23T09:43:44.165Z,99.70
2022-09-23T09:46:36.927Z,99.70
2022-09-23T09:49:22.772Z,99.20
2022-09-23T09:52:08.806Z,98.80
2022-09-23T09:54:36.286Z,98.40
2022-09-23T09:57:06.811Z,97.60
2022-09-23T09:59:34.394Z,96.10
2022-09-23T10:02:26.873Z,95.10
2022-09-23T10:04:54.465Z,95.10
2022-09-23T10:07:21.985Z,94.90
2022-09-23T10:09:49.508Z,95.00
2022-09-23T10:12:23.807Z,95.00
2022-09-23T10:14:51.346Z,95.00
2022-09-23T10:17:24.435Z,94.80
2022-09-23T10:19:54.605Z,94.80
2022-09-23T10:22:22.152Z,94.70
2022-09-23T10:24:50.476Z,94.10
2022-09-23T10:27:18.038Z,94.10
2022-09-23T10:29:48.347Z,94.20
2022-09-23T10:32:21.526Z,94.20
2022-09-23T10:35:07.245Z,93.50
2022-09-23T10:37:52.925Z,93.40
2022-09-23T10:40:50.626Z,92.90
2022-09-23T10:43:44.983Z,92.70
2022-09-23T10:46:36.979Z,92.20
2022-09-23T10:49:26.094Z,91.80
2022-09-23T10:51:56.563Z,91.50
2022-09-23T10:54:42.913Z,91.30
2022-09-23T10:57:41.893Z,91.30
2022-09-23T11:00:27.160Z,91.10
2022-09-23T11:03:15.984Z,90.70
2022-09-23T11:06:05.333Z,90.50
2022-09-23T11:09:06.321Z,89.60
2022-09-23T11:11:42.946Z,87.60
2022-09-23T11:14:10.515Z,86.80
2022-09-23T11:16:38.177Z,86.40
2022-09-23T11:19:14.251Z,83.40
2022-09-23T11:21:42.590Z,82.70
2022-09-23T11:24:16.164Z,82.70
2022-09-23T11:27:05.194Z,82.00
2022-09-23T11:29:45.546Z,80.50
2022-09-23T11:32:40.128Z,80.30
2022-09-23T11:35:19.083Z,79.90
2022-09-23T11:37:53.067Z,78.30
2022-09-23T11:40:20.656Z,78.20
2022-09-23T11:43:06.674Z,76.30
2022-09-23T11:45:34.278Z,76.40
2022-09-23T11:48:07.771Z,75.60
2022-09-23T11:50:41.174Z,74.60
2022-09-23T11:53:14.328Z,73.90
2022-09-23T11:55:57.080Z,71.30
2022-09-23T11:58:26.068Z,68.70
2022-09-23T12:01:03.813Z,68.70
2022-09-23T12:03:42.406Z,67.80
2022-09-23T12:06:01.381Z,67.70
2022-09-23T12:08:31.793Z,68.90
2022-09-23T12:11:08.832Z,68.00
2022-09-23T12:13:54.623Z,68.00
2022-09-23T12:16:50.062Z,67.10
2022-09-23T12:19:23.573Z,66.40
2022-09-23T12:22:10.022Z,63.20
2022-09-23T12:24:46.335Z,63.20
2022-09-23T12:27:19.252Z,63.50
2022-09-23T12:29:46.786Z,63.50
2022-09-23T12:32:17.767Z,63.10
2022-09-23T12:34:50.551Z,63.10
2022-09-23T12:37:33.426Z,63.00
2022-09-23T12:40:07.413Z,63.40
2022-09-23T12:42:34.886Z,63.30
2022-09-23T12:45:32.912Z,63.60
2022-09-23T12:48:00.304Z,63.80
2022-09-23T12:50:46.085Z,63.70
2022-09-23T12:53:35.052Z,63.80
2022-09-23T12:56:14.393Z,63.10
2022-09-23T12:58:44.664Z,62.90
2022-09-23T13:01:15.130Z,62.30
2022-09-23T13:04:00.670Z,61.20
2022-09-23T13:06:40.322Z,60.00
2022-09-23T13:09:13.638Z,60.30
2022-09-23T13:11:41.171Z,59.40
2022-09-23T13:14:08.695Z,59.40
2022-09-23T13:16:39.856Z,58.90
2022-09-23T13:19:07.302Z,58.80
2022-09-23T13:21:47.558Z,59.40
2022-09-23T13:24:18.765Z,59.70
2022-09-23T13:26:55.202Z,59.60
2022-09-23T13:29:28.426Z,59.60
2022-09-23T13:31:55.968Z,59.50
2022-09-23T13:34:23.515Z,59.20
2022-09-23T13:36:51.041Z,58.80
2022-09-23T13:39:25.289Z,58.60
2022-09-23T13:41:52.873Z,58.60
2022-09-23T13:44:20.422Z,58.20
2022-09-23T13:46:47.964Z,57.90
2022-09-23T13:49:21.150Z,56.70
2022-09-23T13:51:48.685Z,56.90
2022-09-23T13:54:34.953Z,57.70
2022-09-23T13:57:02.473Z,57.70
2022-09-23T13:59:30.019Z,57.40
2022-09-23T14:02:06.298Z,57.60
2022-09-23T14:04:34.550Z,57.30
2022-09-23T14:07:02.088Z,57.00
2022-09-23T14:09:30.431Z,55.30
2022-09-23T14:11:57.960Z,55.30
2022-09-23T14:14:25.494Z,55.50
2022-09-23T14:16:53.860Z,56.60
2022-09-23T14:19:21.373Z,56.60
2022-09-23T14:21:48.897Z,57.20
2022-09-23T14:24:34.601Z,56.60
2022-09-23T14:27:08.416Z,56.20
2022-09-23T14:29:35.941Z,56.30
2022-09-23T14:32:04.341Z,56.50
2022-09-23T14:34:37.957Z,56.40
2022-09-23T14:37:23.300Z,56.70
2022-09-23T14:39:53.489Z,56.80
2022-09-23T14:42:18.370Z,56.70
2022-09-23T14:44:46.533Z,56.70
2022-09-23T14:47:14.050Z,57.10
2022-09-23T14:49:41.585Z,57.00
2022-09-23T14:52:09.159Z,57.20
2022-09-23T14:54:40.259Z,56.90
2022-09-23T14:57:22.810Z,56.90
2022-09-23T14:59:56.813Z,57.00
2022-09-23T15:02:31.014Z,57.60
2022-09-23T15:05:13.308Z,57.60
2022-09-23T15:07:41.266Z,57.60
2022-09-23T15:10:08.811Z,58.10
2022-09-23T15:12:36.343Z,57.60
2022-09-23T15:15:03.967Z,57.60
2022-09-23T15:17:31.482Z,58.20
2022-09-23T15:20:05.042Z,58.40
2022-09-23T15:22:32.587Z,58.80
2022-09-23T15:25:15.099Z,59.50
2022-09-23T15:27:42.673Z,59.90
2022-09-23T15:30:15.214Z,59.90
2022-09-23T15:32:41.722Z,59.90
2022-09-23T15:35:09.355Z,60.40
2022-09-23T15:37:37.671Z,60.40
2022-09-23T15:40:05.390Z,60.40
2022-09-23T15:42:33.200Z,59.70
2022-09-23T15:45:00.743Z,59.90
2022-09-23T15:47:28.278Z,59.70
2022-09-23T15:49:56.629Z,60.10
2022-09-23T15:52:24.162Z,60.00
2022-09-23T15:54:51.737Z,60.30
2022-09-23T15:57:19.312Z,60.70
2022-09-23T15:59:46.836Z,61.00
2022-09-23T16:02:16.842Z,61.60
2022-09-23T16:04:46.139Z,63.00
2022-09-23T16:07:13.665Z,63.20
2022-09-23T16:09:41.976Z,62.80
2022-09-23T16:12:09.572Z,62.80
2022-09-23T16:14:37.107Z,62.80
2022-09-23T16:17:04.639Z,62.60
2022-09-23T16:19:32.204Z,62.80
2022-09-23T16:21:59.749Z,63.10
2022-09-23T16:24:28.300Z,63.20
2022-09-23T16:26:55.625Z,64.40
2022-09-23T16:29:23.181Z,64.40
2022-09-23T16:31:50.751Z,65.50
2022-09-23T16:34:19.028Z,66.70
2022-09-23T16:36:46.562Z,66.70
2022-09-23T16:39:14.097Z,67.50
2022-09-23T16:41:41.672Z,68.10
2022-09-23T16:44:09.199Z,67.90
2022-09-23T16:46:37.510Z,69.00
2022-09-23T16:49:05.263Z,68.90
2022-09-23T16:51:32.621Z,69.90
2022-09-23T16:54:00.183Z,71.10
2022-09-23T16:56:29.229Z,73.00
2022-09-23T16:58:56.031Z,72.90
2022-09-23T17:01:41.558Z,73.80
2022-09-23T17:04:09.057Z,73.80
2022-09-23T17:06:36.584Z,74.50
2022-09-23T17:09:04.919Z,75.50
2022-09-23T17:11:34.202Z,75.50
2022-09-23T17:14:00.783Z,76.70
2022-09-23T17:16:28.418Z,76.70
2022-09-23T17:18:55.832Z,77.50
2022-09-23T17:21:25.878Z,78.10
2022-09-23T17:23:56.602Z,78.70
2022-09-23T17:26:24.148Z,79.30
2022-09-23T17:28:51.672Z,80.10
2022-09-23T17:31:19.274Z,80.50
2022-09-23T17:33:46.791Z,80.70
2022-09-23T17:36:14.326Z,81.10
2022-09-23T17:38:44.665Z,81.90
2022-09-23T17:41:12.210Z,82.40
2022-09-23T17:43:39.725Z,82.80
2022-09-23T17:46:09.849Z,83.60
2022-09-23T17:48:40.151Z,84.40
2022-09-23T17:51:08.454Z,85.30
2022-09-23T17:53:36.018Z,85.30
2022-09-23T17:56:06.029Z,85.60
2022-09-23T17:58:33.572Z,86.00
2022-09-23T18:01:02.016Z,86.70
2022-09-23T18:03:30.234Z,87.20
2022-09-23T18:06:13.168Z,87.10
2022-09-23T18:08:40.713Z,87.20
2022-09-23T18:11:10.995Z,87.20
2022-09-23T18:13:38.572Z,87.30
2022-09-23T18:16:06.136Z,87.50
2022-09-23T18:18:33.628Z,87.70
2022-09-23T18:21:01.244Z,88.10
2022-09-23T18:23:29.076Z,88.40
2022-09-23T18:25:56.597Z,88.90
2022-09-23T18:28:24.783Z,89.20
2022-09-23T18:30:52.317Z,89.60
2022-09-23T18:33:19.851Z,90.00
2022-09-23T18:35:47.446Z,90.20
2022-09-23T18:38:14.980Z,90.40
2022-09-23T18:40:52.164Z,91.00
2022-09-23T18:43:22.604Z,91.40
2022-09-23T18:45:59.781Z,91.40
2022-09-23T18:48:45.480Z,91.90
2022-09-23T18:51:13.062Z,92.30
2022-09-23T18:53:40.558Z,92.70
2022-09-23T18:56:10.752Z,93.20
2022-09-23T18:58:38.326Z,93.70
2022-09-23T19:01:08.932Z,94.70
2022-09-23T19:03:37.107Z,95.00
2022-09-23T19:06:10.283Z,95.00
2022-09-23T19:08:37.810Z,95.50
2022-09-23T19:11:06.199Z,96.20
2022-09-23T19:13:34.934Z,96.60
2022-09-23T19:16:02.874Z,96.60
2022-09-23T19:18:30.339Z,97.00
2022-09-23T19:20:58.198Z,97.30
2022-09-23T19:23:25.723Z,97.50
2022-09-23T19:25:54.015Z,98.20
2022-09-23T19:28:21.609Z,98.20
2022-09-23T19:30:49.144Z,98.50
2022-09-23T19:33:16.680Z,98.80
2022-09-23T19:35:50.672Z,99.10
2022-09-23T19:38:18.257Z,99.10
2022-09-23T19:40:49.740Z,99.40
2022-09-23T19:43:13.346Z,99.60
2022-09-23T19:45:40.870Z,99.90
2022-09-23T19:48:08.395Z,99.90
2022-09-23T19:50:39.662Z,99.00
2022-09-23T19:53:07.186Z,99.00
2022-09-23T19:55:35.480Z,99.60
2022-09-23T19:58:03.059Z,99.60
2022-09-23T20:00:30.613Z,99.90
2022-09-23T20:02:58.893Z,99.90
2022-09-23T20:05:27.276Z,99.90
2022-09-23T20:07:54.803Z,99.90
2022-09-23T20:10:23.096Z,99.90
2022-09-23T20:12:50.676Z,99.90
2022-09-23T20:15:18.214Z,99.90
2022-09-23T20:17:45.756Z,99.90
2022-09-23T20:20:14.118Z,99.90
2022-09-23T20:22:41.655Z,99.90
2022-09-23T20:25:09.404Z,99.90
2022-09-23T20:27:36.979Z,99.90
2022-09-23T20:30:04.523Z,99.90
2022-09-23T20:32:32.079Z,99.90
2022-09-23T20:34:59.672Z,99.90
2022-09-23T20:37:27.207Z,99.90
2022-09-23T20:39:54.752Z,99.90
2022-09-23T20:42:22.343Z,99.90
2022-09-23T20:44:49.878Z,99.90
2022-09-23T20:47:17.424Z,99.90
2022-09-23T20:49:45.018Z,99.90
2022-09-23T20:52:12.571Z,99.90
2022-09-23T20:54:40.107Z,99.90
2022-09-23T20:57:07.947Z,99.90
2022-09-23T20:59:35.491Z,99.90
2022-09-23T21:02:03.919Z,99.90
2022-09-23T21:04:32.195Z,99.90
2022-09-23T21:06:59.729Z,99.90
2022-09-23T21:09:33.016Z,99.90
2022-09-23T21:12:00.898Z,99.90
2022-09-23T21:14:28.431Z,99.90
2022-09-23T21:16:55.985Z,99.90
2022-09-23T21:19:23.570Z,99.90
2022-09-23T21:21:51.093Z,99.90
2022-09-23T21:24:48.727Z,99.90
2022-09-23T21:26:46.989Z,99.90
2022-09-23T21:29:14.531Z,99.90
2022-09-23T21:31:42.137Z,99.90
2022-09-23T21:34:12.251Z,99.90
2022-09-23T21:36:39.737Z,99.90
2022-09-23T21:39:07.262Z,99.90
2022-09-23T21:41:35.172Z,99.90
2022-09-23T21:44:02.797Z,99.90
2022-09-23T21:46:30.339Z,99.90
2022-09-23T21:48:57.884Z,99.90
2022-09-23T21:51:42.887Z,99.90
2022-09-23T21:54:13.393Z,99.90
2022-09-23T21:56:40.920Z,99.90
2022-09-23T21:59:08.444Z,99.90
2022-09-23T22:01:39.766Z,99.90
2022-09-23T22:04:16.597Z,99.90
2022-09-23T22:06:43.987Z,99.90
2022-09-23T22:09:14.237Z,99.90
2022-09-23T22:11:59.902Z,99.90
2022-09-23T22:14:27.437Z,99.90
2022-09-23T22:16:57.919Z,99.90
2022-09-23T22:19:29.311Z,99.90
2022-09-23T22:21:56.841Z,99.90
2022-09-23T22:24:24.372Z,99.90
2022-09-23T22:26:51.964Z,99.90
2022-09-23T22:29:37.830Z,99.90
2022-09-23T22:32:24.550Z,99.90
2022-09-23T22:34:52.521Z,99.90
2022-09-23T22:37:22.600Z,99.90
2022-09-23T22:39:50.155Z,99.90
2022-09-23T22:42:17.690Z,99.90
2022-09-23T22:44:45.264Z,99.90
2022-09-23T22:47:12.789Z,99.90
2022-09-23T22:49:40.314Z,99.90
2022-09-23T22:52:08.608Z,99.90
2022-09-23T22:54:36.195Z,99.90
2022-09-23T22:57:09.414Z,99.90
2022-09-23T22:59:36.931Z,99.90
2022-09-23T23:02:04.585Z,99.90
2022-09-23T23:04:32.041Z,99.90
2022-09-23T23:06:59.568Z,99.90
2022-09-23T23:09:27.141Z,99.90
2022-09-23T23:11:55.435Z,99.90
2022-09-23T23:14:22.977Z,99.90
2022-09-23T23:16:51.300Z,99.90
2022-09-23T23:19:18.826Z,99.90
2022-09-23T23:21:46.369Z,99.90
2022-09-23T23:24:14.987Z,99.90
2022-09-23T23:26:42.503Z,99.90
2022-09-23T23:29:10.036Z,99.90
2022-09-23T23:31:38.037Z,99.90
2022-09-23T23:34:05.517Z,99.90
2022-09-23T23:36:33.834Z,99.90
2022-09-23T23:39:01.387Z,99.90
2022-09-23T23:41:28.934Z,99.90
2022-09-23T23:43:56.457Z,99.90
2022-09-23T23:46:24.827Z,99.90
2022-09-23T23:48:52.304Z,99.90
2022-09-23T23:51:19.830Z,99.90
2022-09-23T23:53:47.394Z,99.90
2022-09-23T23:56:17.507Z,99.90
2022-09-23T23:58:45.042Z,99.90
